createdAt,value
2018-09-12T00:00:01.966Z,2.80
2018-09-12T00:02:30.495Z,3.20
2018-09-12T00:04:59.075Z,3.00
2018-09-12T00:07:27.543Z,3.17
2018-09-12T00:09:56.051Z,2.80
2018-09-12T00:12:24.534Z,2.90
2018-09-12T00:14:53.041Z,2.80
2018-09-12T00:17:21.522Z,3.57
2018-09-12T00:19:50.235Z,3.10
2018-09-12T00:22:20.012Z,2.77
2018-09-12T00:24:48.789Z,3.17
2018-09-12T00:27:17.290Z,2.60
2018-09-12T00:29:45.798Z,4.27
2018-09-12T00:32:14.258Z,3.53
2018-09-12T00:34:42.770Z,3.13
2018-09-12T00:37:11.324Z,3.30
2018-09-12T00:39:39.825Z,3.03
2018-09-12T00:42:08.387Z,3.60
2018-09-12T00:44:36.893Z,3.13
2018-09-12T00:47:05.378Z,3.43
2018-09-12T00:49:34.046Z,3.13
2018-09-12T00:52:02.571Z,2.70
2018-09-12T00:54:31.298Z,2.87
2018-09-12T00:56:59.753Z,2.57
2018-09-12T00:59:28.451Z,3.07
2018-09-12T01:01:57.012Z,3.30
2018-09-12T01:04:25.581Z,3.43
2018-09-12T01:06:54.589Z,2.73
2018-09-12T01:09:23.098Z,3.30
2018-09-12T01:11:51.550Z,2.77
2018-09-12T01:14:21.236Z,3.80
2018-09-12T01:16:55.174Z,4.13
2018-09-12T01:19:23.859Z,3.40
2018-09-12T01:21:52.653Z,3.43
2018-09-12T01:24:21.164Z,2.93
2018-09-12T01:26:49.649Z,3.00
2018-09-12T01:29:18.436Z,2.60
2018-09-12T01:31:46.934Z,3.70
2018-09-12T01:34:15.439Z,3.50
2018-09-12T01:36:44.011Z,2.83
2018-09-12T01:39:12.970Z,3.17
2018-09-12T01:41:41.551Z,3.60
2018-09-12T01:44:10.074Z,4.30
2018-09-12T01:46:38.546Z,2.97
2018-09-12T01:49:07.063Z,3.23
2018-09-12T01:51:35.555Z,3.87
2018-09-12T01:54:04.086Z,3.47
2018-09-12T01:56:33.153Z,3.70
2018-09-12T01:59:01.659Z,3.33
2018-09-12T02:01:30.119Z,3.73
2018-09-12T02:04:01.090Z,3.77
2018-09-12T02:06:30.429Z,3.50
2018-09-12T02:08:58.960Z,3.60
2018-09-12T02:11:27.613Z,2.73
2018-09-12T02:13:56.148Z,3.40
2018-09-12T02:16:24.645Z,3.30
2018-09-12T02:18:53.196Z,2.93
2018-09-12T02:21:21.702Z,3.07
2018-09-12T02:23:50.221Z,3.20
2018-09-12T02:26:18.754Z,3.27
2018-09-12T02:28:47.320Z,3.27
2018-09-12T02:31:15.887Z,3.83
2018-09-12T02:33:44.577Z,3.60
2018-09-12T02:36:18.499Z,3.17
2018-09-12T02:38:47.367Z,3.40
2018-09-12T02:41:15.867Z,3.37
2018-09-12T02:43:44.330Z,3.20
2018-09-12T02:46:12.939Z,3.40
2018-09-12T02:48:41.406Z,3.07
2018-09-12T02:51:09.972Z,3.67
2018-09-12T02:53:38.634Z,3.40
2018-09-12T02:56:07.155Z,4.07
2018-09-12T02:58:35.671Z,3.97
2018-09-12T03:01:04.201Z,3.43
2018-09-12T03:03:32.694Z,3.90
2018-09-12T03:06:01.223Z,3.33
2018-09-12T03:08:29.882Z,3.27
2018-09-12T03:10:58.408Z,3.03
2018-09-12T03:13:27.133Z,3.17
2018-09-12T03:15:55.684Z,4.03
2018-09-12T03:18:24.459Z,2.83
2018-09-12T03:20:53.161Z,3.57
2018-09-12T03:23:21.535Z,4.00
2018-09-12T03:25:50.068Z,3.80
2018-09-12T03:28:18.562Z,4.20
2018-09-12T03:30:47.063Z,3.83
2018-09-12T03:33:15.527Z,3.93
2018-09-12T03:35:44.043Z,3.73
2018-09-12T03:38:12.520Z,3.40
2018-09-12T03:40:41.047Z,3.77
2018-09-12T03:43:09.543Z,3.80
2018-09-12T03:45:38.053Z,3.27
2018-09-12T03:48:06.633Z,4.33
2018-09-12T03:50:35.118Z,3.63
2018-09-12T03:53:03.618Z,3.87
2018-09-12T03:55:32.255Z,4.07
2018-09-12T03:58:00.734Z,3.67
2018-09-12T04:00:29.442Z,3.30
2018-09-12T04:02:57.971Z,4.43
2018-09-12T04:05:26.904Z,4.67
2018-09-12T04:07:55.407Z,3.57
2018-09-12T04:10:23.943Z,4.30
2018-09-12T04:12:52.419Z,4.70
2018-09-12T04:15:20.954Z,4.13
2018-09-12T04:17:49.431Z,3.60
2018-09-12T04:20:18.022Z,4.10
2018-09-12T04:22:46.573Z,3.93
2018-09-12T04:25:15.056Z,3.80
2018-09-12T04:27:44.788Z,3.93
2018-09-12T04:30:14.682Z,3.70
2018-09-12T04:32:43.184Z,4.00
2018-09-12T04:35:11.719Z,3.20
2018-09-12T04:37:40.205Z,4.10
2018-09-12T04:40:08.742Z,3.37
2018-09-12T04:42:37.394Z,3.63
2018-09-12T04:45:06.472Z,4.07
2018-09-12T04:47:34.943Z,3.73
2018-09-12T04:50:04.256Z,3.57
2018-09-12T04:52:32.738Z,3.80
2018-09-12T04:55:01.268Z,3.50
2018-09-12T04:57:29.738Z,3.70
2018-09-12T04:59:59.154Z,3.90
2018-09-12T05:02:27.679Z,3.37
2018-09-12T05:04:56.834Z,3.70
2018-09-12T05:07:25.602Z,3.20
2018-09-12T05:09:54.167Z,3.67
2018-09-12T05:12:22.659Z,3.60
2018-09-12T05:14:51.225Z,4.23
2018-09-12T05:17:19.708Z,3.37
2018-09-12T05:19:48.467Z,3.70
2018-09-12T05:22:16.968Z,3.53
2018-09-12T05:24:45.541Z,3.37
2018-09-12T05:27:14.045Z,4.43
2018-09-12T05:29:42.743Z,3.47
2018-09-12T05:32:11.603Z,4.37
2018-09-12T05:34:40.159Z,3.40
2018-09-12T05:37:08.650Z,4.20
2018-09-12T05:39:37.335Z,3.80
2018-09-12T05:42:06.399Z,4.73
2018-09-12T05:44:34.871Z,3.60
2018-09-12T05:47:03.412Z,4.73
2018-09-12T05:49:32.039Z,4.00
2018-09-12T05:52:00.580Z,3.67
2018-09-12T05:54:29.042Z,3.90
2018-09-12T05:56:58.492Z,4.33
2018-09-12T05:59:27.260Z,4.00
2018-09-12T06:01:57.862Z,4.70
2018-09-12T06:04:26.351Z,3.60
2018-09-12T06:06:55.000Z,4.63
2018-09-12T06:09:23.395Z,4.60
2018-09-12T06:11:51.931Z,3.97
2018-09-12T06:14:20.418Z,3.40
2018-09-12T06:16:48.967Z,4.50
2018-09-12T06:19:17.721Z,4.47
2018-09-12T06:21:46.240Z,3.80
2018-09-12T06:24:14.861Z,3.90
2018-09-12T06:26:43.407Z,4.23
2018-09-12T06:29:11.938Z,3.80
2018-09-12T06:31:40.470Z,4.00
2018-09-12T06:34:09.100Z,3.93
2018-09-12T06:36:37.734Z,4.03
2018-09-12T06:39:09.599Z,4.10
2018-09-12T06:41:38.131Z,5.03
2018-09-12T06:44:06.973Z,4.97
2018-09-12T06:46:35.802Z,4.67
2018-09-12T06:49:04.691Z,4.40
2018-09-12T06:51:33.201Z,4.13
2018-09-12T06:54:01.919Z,4.07
2018-09-12T06:56:30.628Z,3.90
2018-09-12T06:58:59.192Z,3.73
2018-09-12T07:01:27.688Z,4.33
2018-09-12T07:03:56.250Z,4.23
2018-09-12T07:06:25.056Z,3.60
2018-09-12T07:08:53.586Z,3.90
2018-09-12T07:11:22.406Z,4.60
2018-09-12T07:13:50.894Z,4.23
2018-09-12T07:16:19.712Z,3.10
2018-09-12T07:18:48.419Z,3.80
2018-09-12T07:21:17.198Z,4.00
2018-09-12T07:23:45.839Z,4.10
2018-09-12T07:26:14.341Z,3.10
2018-09-12T07:28:42.871Z,3.50
2018-09-12T07:31:11.417Z,3.90
2018-09-12T07:33:40.031Z,4.30
2018-09-12T07:36:08.578Z,3.50
2018-09-12T07:38:37.115Z,3.37
2018-09-12T07:41:05.692Z,4.50
2018-09-12T07:43:34.520Z,4.00
2018-09-12T07:46:03.197Z,2.97
2018-09-12T07:48:32.447Z,4.20
2018-09-12T07:51:01.607Z,3.43
2018-09-12T07:53:30.613Z,3.47
2018-09-12T07:55:59.975Z,3.57
2018-09-12T07:58:29.013Z,3.90
2018-09-12T08:00:58.131Z,3.50
2018-09-12T08:03:26.687Z,3.23
2018-09-12T08:05:55.777Z,4.33
2018-09-12T08:08:24.316Z,3.20
2018-09-12T08:10:52.834Z,4.90
2018-09-12T08:13:22.060Z,4.10
2018-09-12T08:15:50.978Z,3.87
2018-09-12T08:18:19.791Z,3.40
2018-09-12T08:20:48.613Z,3.47
2018-09-12T08:23:17.143Z,3.30
2018-09-12T08:25:45.641Z,3.20
2018-09-12T08:28:14.162Z,3.50
2018-09-12T08:30:42.711Z,3.27
2018-09-12T08:33:11.323Z,3.70
2018-09-12T08:35:39.824Z,3.70
2018-09-12T08:38:08.346Z,2.87
2018-09-12T08:40:37.476Z,4.00
2018-09-12T08:43:06.094Z,3.40
2018-09-12T08:45:34.552Z,3.93
2018-09-12T08:48:03.270Z,3.53
2018-09-12T08:50:31.771Z,3.07
2018-09-12T08:53:00.336Z,3.63
2018-09-12T08:55:28.819Z,3.53
2018-09-12T08:57:57.334Z,3.23
2018-09-12T09:00:31.889Z,3.20
2018-09-12T09:03:00.423Z,3.53
2018-09-12T09:05:28.914Z,3.60
2018-09-12T09:07:58.002Z,4.03
2018-09-12T09:10:26.633Z,3.60
2018-09-12T09:12:56.365Z,3.17
2018-09-12T09:15:27.730Z,4.10
2018-09-12T09:17:56.754Z,3.53
2018-09-12T09:20:25.765Z,3.13
2018-09-12T09:22:54.686Z,3.60
2018-09-12T09:25:23.335Z,3.47
2018-09-12T09:27:51.894Z,3.20
2018-09-12T09:30:21.559Z,3.60
2018-09-12T09:32:50.138Z,2.93
2018-09-12T09:35:18.652Z,3.03
2018-09-12T09:37:47.172Z,3.40
2018-09-12T09:40:16.345Z,2.67
2018-09-12T09:42:44.992Z,3.17
2018-09-12T09:45:13.407Z,3.27
2018-09-12T09:47:41.993Z,2.83
2018-09-12T09:50:10.470Z,3.00
2018-09-12T09:52:39.426Z,3.40
2018-09-12T09:55:08.012Z,3.73
2018-09-12T09:57:37.128Z,3.80
2018-09-12T10:00:12.444Z,2.80
2018-09-12T10:02:42.731Z,2.70
2018-09-12T10:05:16.415Z,3.93
2018-09-12T10:07:46.939Z,3.50
2018-09-12T10:10:16.667Z,3.10
2018-09-12T10:12:45.286Z,3.50
2018-09-12T10:15:14.094Z,3.00
2018-09-12T10:17:43.300Z,3.20
2018-09-12T10:20:18.435Z,3.43
2018-09-12T10:22:46.956Z,2.87
2018-09-12T10:25:15.517Z,2.77
2018-09-12T10:27:44.196Z,3.10
2018-09-12T10:30:12.783Z,3.00
2018-09-12T10:32:41.447Z,2.87
2018-09-12T10:35:09.991Z,3.33
2018-09-12T10:37:38.554Z,2.67
2018-09-12T10:40:07.286Z,2.70
2018-09-12T10:42:36.352Z,2.80
2018-09-12T10:45:05.139Z,3.30
2018-09-12T10:47:33.707Z,3.10
2018-09-12T10:50:02.254Z,3.13
2018-09-12T10:52:30.765Z,2.90
2018-09-12T10:54:59.244Z,3.03
2018-09-12T10:57:27.764Z,2.40
2018-09-12T10:59:56.256Z,3.40
2018-09-12T11:02:24.820Z,2.80
2018-09-12T11:04:53.340Z,2.87
2018-09-12T11:07:21.981Z,2.23
2018-09-12T11:09:50.575Z,3.20
2018-09-12T11:12:21.284Z,3.00
2018-09-12T11:14:49.850Z,3.43
2018-09-12T11:17:18.334Z,2.87
2018-09-12T11:19:47.075Z,2.73
2018-09-12T11:22:15.665Z,4.33
2018-09-12T11:24:44.179Z,2.90
2018-09-12T11:27:12.786Z,2.47
2018-09-12T11:29:41.609Z,2.70
2018-09-12T11:32:10.207Z,2.90
2018-09-12T11:34:38.893Z,2.60
2018-09-12T11:37:07.820Z,3.30
2018-09-12T11:39:37.194Z,2.73
2018-09-12T11:42:05.981Z,2.80
2018-09-12T11:44:34.766Z,3.20
2018-09-12T11:47:04.181Z,2.63
2018-09-12T11:49:32.733Z,3.53
2018-09-12T11:52:01.219Z,3.20
2018-09-12T11:54:30.135Z,2.97
2018-09-12T11:56:58.675Z,3.07
2018-09-12T11:59:27.226Z,3.53
2018-09-12T12:01:56.440Z,3.37
2018-09-12T12:04:25.880Z,2.93
2018-09-12T12:06:54.430Z,2.60
2018-09-12T12:09:23.023Z,2.90
2018-09-12T12:11:51.502Z,3.00
2018-09-12T12:14:20.251Z,2.93
2018-09-12T12:16:48.775Z,3.00
2018-09-12T12:19:17.566Z,3.30
2018-09-12T12:21:46.050Z,2.90
2018-09-12T12:24:14.916Z,2.73
2018-09-12T12:26:43.453Z,3.13
2018-09-12T12:29:11.983Z,3.67
2018-09-12T12:31:40.551Z,3.00
2018-09-12T12:34:09.651Z,4.00
2018-09-12T12:36:38.151Z,3.53
2018-09-12T12:39:08.938Z,2.77
2018-09-12T12:41:37.444Z,3.57
2018-09-12T12:44:06.467Z,3.10
2018-09-12T12:46:34.984Z,3.53
2018-09-12T12:49:03.588Z,3.07
2018-09-12T12:51:32.157Z,2.83
2018-09-12T12:54:01.879Z,3.10
2018-09-12T12:56:30.386Z,2.47
2018-09-12T12:58:58.947Z,2.50
2018-09-12T13:01:27.710Z,2.87
2018-09-12T13:03:56.230Z,3.30
2018-09-12T13:06:25.338Z,3.43
2018-09-12T13:08:53.870Z,3.33
2018-09-12T13:11:22.399Z,3.47
2018-09-12T13:13:52.217Z,3.00
2018-09-12T13:16:21.601Z,3.00
2018-09-12T13:18:50.278Z,2.87
2018-09-12T13:21:18.847Z,2.47
2018-09-12T13:23:47.911Z,2.50
2018-09-12T13:26:16.462Z,2.80
2018-09-12T13:28:45.046Z,3.87
2018-09-12T13:31:13.520Z,2.40
2018-09-12T13:33:42.276Z,2.90
2018-09-12T13:36:10.812Z,2.97
2018-09-12T13:38:39.375Z,3.00
2018-09-12T13:41:08.087Z,2.67
2018-09-12T13:43:36.711Z,2.40
2018-09-12T13:46:05.218Z,2.57
2018-09-12T13:48:35.511Z,3.03
2018-09-12T13:51:04.031Z,3.10
2018-09-12T13:53:32.584Z,3.10
2018-09-12T13:56:01.283Z,3.30
2018-09-12T13:58:29.812Z,2.50
2018-09-12T14:00:58.333Z,4.67
2018-09-12T14:03:26.866Z,2.87
2018-09-12T14:05:55.354Z,2.73
2018-09-12T14:08:23.890Z,3.03
2018-09-12T14:10:53.594Z,2.87
2018-09-12T14:13:22.098Z,2.67
2018-09-12T14:15:50.587Z,2.40
2018-09-12T14:18:19.773Z,2.80
2018-09-12T14:20:48.258Z,3.30
2018-09-12T14:23:16.799Z,4.00
2018-09-12T14:25:45.305Z,4.20
2018-09-12T14:28:13.858Z,2.70
2018-09-12T14:30:42.522Z,3.77
2018-09-12T14:33:11.029Z,2.77
2018-09-12T14:35:39.548Z,3.27
2018-09-12T14:38:08.118Z,2.93
2018-09-12T14:40:36.626Z,3.47
2018-09-12T14:43:05.303Z,2.70
2018-09-12T14:45:35.009Z,3.27
2018-09-12T14:48:03.838Z,3.50
2018-09-12T14:50:32.451Z,2.87
2018-09-12T14:53:01.277Z,2.70
2018-09-12T14:55:30.351Z,2.43
2018-09-12T14:57:59.890Z,2.80
2018-09-12T15:00:29.136Z,3.63
2018-09-12T15:02:58.986Z,2.70
2018-09-12T15:05:27.631Z,2.83
2018-09-12T15:07:57.058Z,3.43
2018-09-12T15:10:27.390Z,3.30
2018-09-12T15:12:55.941Z,3.03
2018-09-12T15:15:25.169Z,4.07
2018-09-12T15:17:53.970Z,3.10
2018-09-12T15:20:22.501Z,2.90
2018-09-12T15:22:51.304Z,3.37
2018-09-12T15:25:19.827Z,2.80
2018-09-12T15:27:48.518Z,3.20
2018-09-12T15:30:17.009Z,3.50
2018-09-12T15:32:46.365Z,3.20
2018-09-12T15:35:14.846Z,2.70
2018-09-12T15:37:43.653Z,3.37
2018-09-12T15:40:12.796Z,3.43
2018-09-12T15:42:41.341Z,3.00
2018-09-12T15:45:09.898Z,3.13
2018-09-12T15:47:38.434Z,3.33
2018-09-12T15:50:07.161Z,3.03
2018-09-12T15:52:36.140Z,3.10
2018-09-12T15:55:05.316Z,3.37
2018-09-12T15:57:33.901Z,3.13
2018-09-12T16:00:03.871Z,3.30
2018-09-12T16:02:32.360Z,3.23
2018-09-12T16:05:01.071Z,2.60
2018-09-12T16:07:29.390Z,3.20
2018-09-12T16:09:58.408Z,3.17
2018-09-12T16:12:27.361Z,3.37
2018-09-12T16:14:55.857Z,3.73
2018-09-12T16:17:24.436Z,2.90
2018-09-12T16:19:52.968Z,3.20
2018-09-12T16:22:21.728Z,2.80
2018-09-12T16:24:50.443Z,3.07
2018-09-12T16:27:19.356Z,3.00
2018-09-12T16:29:47.880Z,2.53
2018-09-12T16:32:16.390Z,3.40
2018-09-12T16:34:45.102Z,3.03
2018-09-12T16:37:13.957Z,2.93
2018-09-12T16:39:43.712Z,3.43
2018-09-12T16:42:12.819Z,2.40
2018-09-12T16:44:41.616Z,2.93
2018-09-12T16:47:10.132Z,3.20
2018-09-12T16:49:38.763Z,3.40
2018-09-12T16:52:08.995Z,3.10
2018-09-12T16:54:37.851Z,2.83
2018-09-12T16:57:06.464Z,3.13
2018-09-12T16:59:35.013Z,2.93
2018-09-12T17:02:03.520Z,3.83
2018-09-12T17:04:32.064Z,3.70
2018-09-12T17:07:00.562Z,2.70
2018-09-12T17:09:29.364Z,3.27
2018-09-12T17:11:57.900Z,3.30
2018-09-12T17:14:26.595Z,2.27
2018-09-12T17:16:56.104Z,2.60
2018-09-12T17:19:24.798Z,3.60
2018-09-12T17:21:53.978Z,3.00
2018-09-12T17:24:22.531Z,3.30
2018-09-12T17:26:51.069Z,3.17
2018-09-12T17:29:19.588Z,3.30
2018-09-12T17:31:48.252Z,2.80
2018-09-12T17:34:16.953Z,3.43
2018-09-12T17:36:46.713Z,3.43
2018-09-12T17:39:15.271Z,2.57
2018-09-12T17:41:43.907Z,3.30
2018-09-12T17:44:12.397Z,3.80
2018-09-12T17:46:40.973Z,3.60
2018-09-12T17:49:09.482Z,5.47
2018-09-12T17:51:38.607Z,4.07
2018-09-12T17:54:07.167Z,3.10
2018-09-12T17:56:35.723Z,4.90
2018-09-12T17:59:04.278Z,3.80
2018-09-12T18:01:32.892Z,3.93
2018-09-12T18:04:01.441Z,3.53
2018-09-12T18:06:30.131Z,3.53
2018-09-12T18:08:58.688Z,3.23
2018-09-12T18:11:27.262Z,3.53
2018-09-12T18:13:56.180Z,3.67
2018-09-12T18:16:24.661Z,4.80
2018-09-12T18:18:53.467Z,3.73
2018-09-12T18:21:22.217Z,3.60
2018-09-12T18:23:50.831Z,3.43
2018-09-12T18:26:19.497Z,3.60
2018-09-12T18:28:48.076Z,3.70
2018-09-12T18:31:16.623Z,3.07
2018-09-12T18:33:45.199Z,3.80
2018-09-12T18:36:14.104Z,4.20
2018-09-12T18:38:42.590Z,3.83
2018-09-12T18:41:11.182Z,4.17
2018-09-12T18:43:39.775Z,3.10
2018-09-12T18:46:08.472Z,3.70
2018-09-12T18:48:37.048Z,3.33
2018-09-12T18:51:10.909Z,3.30
2018-09-12T18:53:40.363Z,3.60
2018-09-12T18:56:08.923Z,3.30
2018-09-12T18:58:37.736Z,3.90
2018-09-12T19:01:06.393Z,4.00
2018-09-12T19:03:34.930Z,3.80
2018-09-12T19:06:03.707Z,3.70
2018-09-12T19:08:32.294Z,3.50
2018-09-12T19:11:00.959Z,3.47
2018-09-12T19:13:29.499Z,4.37
2018-09-12T19:15:58.142Z,3.00
2018-09-12T19:18:27.126Z,3.37
2018-09-12T19:20:55.654Z,3.60
2018-09-12T19:23:24.216Z,3.43
2018-09-12T19:25:52.810Z,3.67
2018-09-12T19:28:21.998Z,3.53
2018-09-12T19:30:50.510Z,3.43
2018-09-12T19:33:19.059Z,3.10
2018-09-12T19:35:47.649Z,3.57
2018-09-12T19:38:16.416Z,3.80
2018-09-12T19:40:44.963Z,4.53
2018-09-12T19:43:13.515Z,3.87
2018-09-12T19:45:42.717Z,4.63
2018-09-12T19:48:11.289Z,4.87
2018-09-12T19:50:39.800Z,5.20
2018-09-12T19:53:09.796Z,5.90
2018-09-12T19:55:39.296Z,5.53
2018-09-12T19:58:07.854Z,5.43
2018-09-12T20:00:36.532Z,5.83
2018-09-12T20:03:05.347Z,6.33
2018-09-12T20:05:34.048Z,6.77
2018-09-12T20:08:03.264Z,6.40
2018-09-12T20:10:31.858Z,7.30
2018-09-12T20:13:00.481Z,6.50
2018-09-12T20:15:29.121Z,6.30
2018-09-12T20:17:57.954Z,5.83
2018-09-12T20:20:26.570Z,5.47
2018-09-12T20:22:55.190Z,5.70
2018-09-12T20:25:23.693Z,6.30
2018-09-12T20:27:52.248Z,6.43
2018-09-12T20:30:20.814Z,5.93
2018-09-12T20:32:49.877Z,5.63
2018-09-12T20:35:18.359Z,5.97
2018-09-12T20:37:47.032Z,5.63
2018-09-12T20:40:16.337Z,6.00
2018-09-12T20:42:44.854Z,7.00
2018-09-12T20:45:13.414Z,6.40
2018-09-12T20:47:42.742Z,6.70
2018-09-12T20:50:11.343Z,6.57
2018-09-12T20:52:39.877Z,6.13
2018-09-12T20:55:08.478Z,6.03
2018-09-12T20:57:37.010Z,7.00
2018-09-12T21:00:06.279Z,7.73
2018-09-12T21:02:34.931Z,6.70
2018-09-12T21:05:03.491Z,7.07
2018-09-12T21:07:31.985Z,6.17
2018-09-12T21:10:00.530Z,5.90
2018-09-12T21:12:29.029Z,6.90
2018-09-12T21:14:57.603Z,6.93
2018-09-12T21:17:26.111Z,6.40
2018-09-12T21:19:54.765Z,6.57
2018-09-12T21:22:23.294Z,5.93
2018-09-12T21:24:51.834Z,6.70
2018-09-12T21:27:20.335Z,5.90
2018-09-12T21:29:49.324Z,6.07
2018-09-12T21:32:17.892Z,7.07
2018-09-12T21:34:46.418Z,7.07
2018-09-12T21:37:14.972Z,7.03
2018-09-12T21:39:43.519Z,7.43
2018-09-12T21:42:12.156Z,6.27
2018-09-12T21:44:40.725Z,8.50
2018-09-12T21:47:09.993Z,6.83
2018-09-12T21:49:39.179Z,6.80
2018-09-12T21:52:07.686Z,6.70
2018-09-12T21:54:36.381Z,7.10
2018-09-12T21:57:05.792Z,6.80
2018-09-12T21:59:34.334Z,6.90
2018-09-12T22:02:02.847Z,6.00
2018-09-12T22:04:31.361Z,6.30
2018-09-12T22:06:59.858Z,6.90
2018-09-12T22:09:28.386Z,6.53
2018-09-12T22:11:56.875Z,7.00
2018-09-12T22:14:25.411Z,6.23
2018-09-12T22:16:53.970Z,6.37
2018-09-12T22:19:22.821Z,6.87
2018-09-12T22:21:51.304Z,6.00
2018-09-12T22:24:19.915Z,5.43
2018-09-12T22:26:48.392Z,5.87
2018-09-12T22:29:17.009Z,5.70
2018-09-12T22:31:45.479Z,6.70
2018-09-12T22:34:13.996Z,5.83
2018-09-12T22:36:42.463Z,5.70
2018-09-12T22:39:12.250Z,6.90
2018-09-12T22:41:41.844Z,6.10
2018-09-12T22:44:10.375Z,5.10
2018-09-12T22:46:39.800Z,5.47
2018-09-12T22:49:09.347Z,5.60
2018-09-12T22:51:37.861Z,5.93
2018-09-12T22:54:06.382Z,5.50
2018-09-12T22:56:34.882Z,5.97
2018-09-12T22:59:03.663Z,5.33
2018-09-12T23:01:32.701Z,6.23
2018-09-12T23:04:01.453Z,5.23
2018-09-12T23:06:29.937Z,4.90
2018-09-12T23:08:59.866Z,5.20
2018-09-12T23:11:28.345Z,5.00
2018-09-12T23:13:57.682Z,5.57
2018-09-12T23:16:26.216Z,4.80
2018-09-12T23:18:55.410Z,5.67
2018-09-12T23:21:24.714Z,5.27
2018-09-12T23:23:53.209Z,5.33
2018-09-12T23:26:21.730Z,5.40
2018-09-12T23:28:50.340Z,4.70
2018-09-12T23:31:18.868Z,5.40
2018-09-12T23:33:47.833Z,5.47
2018-09-12T23:36:16.361Z,5.03
2018-09-12T23:38:45.161Z,4.80
2018-09-12T23:41:13.704Z,4.57
2018-09-12T23:43:42.255Z,5.57
2018-09-12T23:46:10.806Z,5.00
2018-09-12T23:48:39.683Z,4.90
2018-09-12T23:51:08.236Z,4.50
2018-09-12T23:53:36.813Z,4.80
2018-09-12T23:56:06.537Z,5.07
2018-09-12T23:58:35.281Z,5.07
